Time;durP1;ratioP1;P1;durP2;ratioP2;P2;SDS_P1;SDS_P2;PMS_P1;PMS_P2;Temp;Humidity;BMP_temperature;BMP_pressure;BME280_temperature;BME280_humidity;BME280_pressure;Samples;Min_cycle;Max_cycle;Signal;HPM_P1;HPM_P2
2022/04/13 00:02:23;;;;;;;;;;;;;;;8.70;50.06;100346.94;4367157;32;33946;-86
2022/04/13 00:05:13;;;;;;;;;;;;;;;8.76;50.27;100348.25;4378093;32;33055;-86
2022/04/13 00:07:41;;;;;;;;;;;;;;;8.72;50.24;100346.81;4378676;32;34922;-87
2022/04/13 00:10:30;;;;;;;;;;;;;;;8.57;50.39;100346.19;4377086;32;35326;-87
2022/04/13 00:12:57;;;;;;;;;;;;;;;8.72;50.40;100352.94;4390701;32;33771;-88
2022/04/13 00:15:30;;;;;;;;;;;;;;;8.77;50.30;100349.94;4376535;32;34644;-86
2022/04/13 00:17:58;;;;;;;;;;;;;;;8.69;50.12;100353.19;4377546;32;34078;-93
2022/04/13 00:20:26;;;;;;;;;;;;;;;8.66;50.36;100361.41;4376704;32;34965;-86
2022/04/13 00:22:59;;;;;;;;;;;;;;;8.62;50.32;100362.59;4389698;32;34860;-86
2022/04/13 00:25:29;;;;;;;;;;;;;;;8.45;50.45;100364.84;4375935;32;33495;-86
2022/04/13 00:27:59;;;;;;;;;;;;;;;8.48;50.21;100366.44;4387306;32;34051;-87
2022/04/13 00:30:28;;;;;;;;;;;;;;;8.47;50.00;100356.81;4376977;32;34628;-87
2022/04/13 00:32:57;;;;;;;;;;;;;;;8.53;49.48;100354.50;4390273;32;34076;-87
2022/04/13 00:35:30;;;;;;;;;;;;;;;8.33;49.86;100349.91;4377431;32;34435;-86
2022/04/13 00:37:58;;;;;;;;;;;;;;;8.39;49.60;100349.41;4376945;32;35895;-93
2022/04/13 00:40:26;;;;;;;;;;;;;;;8.47;49.46;100348.84;4374829;32;34764;-86
2022/04/13 00:43:24;;;;;;;;;;;;;;;8.47;49.65;100348.84;4376976;32;33839;-86
2022/04/13 00:45:53;;;;;;;;;;;;;;;8.23;49.76;100361.31;4389234;32;33162;-87
2022/04/13 00:48:30;;;;;;;;;;;;;;;8.13;50.48;100352.31;4373187;32;34934;-87
2022/04/13 00:51:01;;;;;;;;;;;;;;;8.34;49.77;100351.59;4378611;32;34808;-86
2022/04/13 00:53:30;;;;;;;;;;;;;;;8.36;49.79;100359.41;4377212;32;33299;-87
2022/04/13 00:55:59;;;;;;;;;;;;;;;8.32;50.11;100355.31;4372435;32;33733;-86
2022/04/13 00:58:47;;;;;;;;;;;;;;;8.38;49.83;100354.84;4378308;32;35202;-90
2022/04/13 01:01:15;;;;;;;;;;;;;;;8.28;50.14;100362.63;4363407;32;33827;-91
2022/04/13 01:03:43;;;;;;;;;;;;;;;8.23;50.42;100367.47;4379817;32;33072;-86
2022/04/13 01:06:15;;;;;;;;;;;;;;;8.26;50.12;100369.00;4390028;32;33147;-88
2022/04/13 01:08:50;;;;;;;;;;;;;;;8.26;49.87;100363.72;4390085;32;35008;-90
2022/04/13 01:11:19;;;;;;;;;;;;;;;8.26;49.67;100369.88;4375424;32;34802;-87
2022/04/13 01:13:48;;;;;;;;;;;;;;;8.12;49.99;100367.38;4375805;32;33064;-88
2022/04/13 01:16:52;;;;;;;;;;;;;;;8.21;50.01;100369.34;4386126;32;34141;-88
2022/04/13 01:19:23;;;;;;;;;;;;;;;7.93;50.87;100366.22;4376643;32;35707;-90
2022/04/13 01:22:28;;;;;;;;;;;;;;;7.81;50.88;100362.66;4377607;32;34573;-86
2022/04/13 01:24:59;;;;;;;;;;;;;;;8.05;50.63;100373.25;4377216;32;33180;-87
2022/04/13 01:27:30;;;;;;;;;;;;;;;8.03;50.70;100370.69;4366043;32;33681;-87
2022/04/13 01:29:58;;;;;;;;;;;;;;;7.98;50.58;100375.50;4389972;32;35713;-88
2022/04/13 01:32:50;;;;;;;;;;;;;;;8.04;50.11;100376.84;4377636;32;35369;-86
2022/04/13 01:35:37;;;;;;;;;;;;;;;7.88;50.26;100378.94;4387418;32;34290;-87
2022/04/13 01:38:07;;;;;;;;;;;;;;;7.94;50.22;100376.69;4376626;32;34524;-86
2022/04/13 01:40:55;;;;;;;;;;;;;;;7.89;50.58;100388.59;4376399;32;34470;-86
2022/04/13 01:43:25;;;;;;;;;;;;;;;7.97;50.26;100381.78;4377548;32;33448;-86
2022/04/13 01:45:55;;;;;;;;;;;;;;;7.96;50.09;100384.53;4377839;32;33964;-89
2022/04/13 01:48:47;;;;;;;;;;;;;;;7.97;50.00;100381.78;4376686;32;33129;-86
2022/04/13 01:51:35;;;;;;;;;;;;;;;7.86;50.30;100383.53;4375631;32;35074;-89
2022/04/13 01:54:43;;;;;;;;;;;;;;;7.89;50.46;100392.09;4377889;32;35426;-87
2022/04/13 01:57:10;;;;;;;;;;;;;;;7.94;50.48;100389.09;4376297;32;32703;-85
2022/04/13 02:00:09;;;;;;;;;;;;;;;7.81;50.59;100385.69;4376091;32;34422;-89
2022/04/13 02:02:58;;;;;;;;;;;;;;;7.78;50.18;100397.34;4386239;32;34195;-90
2022/04/13 02:05:29;;;;;;;;;;;;;;;7.60;50.85;100400.47;4376920;32;34757;-88
2022/04/13 02:07:58;;;;;;;;;;;;;;;7.77;50.65;100398.28;4363939;32;32268;-89
2022/04/13 02:10:28;;;;;;;;;;;;;;;7.80;50.97;100394.56;4376595;32;34977;-86
2022/04/13 02:13:00;;;;;;;;;;;;;;;7.78;50.93;100399.97;4388801;32;35665;-86
2022/04/13 02:15:29;;;;;;;;;;;;;;;7.80;50.97;100391.91;4387850;32;35307;-86
2022/04/13 02:18:17;;;;;;;;;;;;;;;7.69;51.20;100394.50;4364902;32;32213;-89
2022/04/13 02:21:13;;;;;;;;;;;;;;;7.64;51.38;100400.13;4383909;32;34540;-89
2022/04/13 02:23:42;;;;;;;;;;;;;;;7.61;51.56;100397.72;4376500;32;35379;-87
2022/04/13 02:26:11;;;;;;;;;;;;;;;7.59;51.44;100402.28;4381674;32;34383;-87
2022/04/13 02:28:40;;;;;;;;;;;;;;;7.52;51.61;100397.50;4401321;32;33567;-89
2022/04/13 02:31:08;;;;;;;;;;;;;;;7.63;51.04;100401.09;4399094;32;34821;-85
2022/04/13 02:33:36;;;;;;;;;;;;;;;7.44;51.22;100391.94;4399162;32;34007;-87
2022/04/13 02:36:07;;;;;;;;;;;;;;;7.47;51.36;100403.13;4399187;32;34785;-86
2022/04/13 02:38:39;;;;;;;;;;;;;;;7.53;51.23;100400.06;4387051;32;33253;-87
2022/04/13 02:41:10;;;;;;;;;;;;;;;7.61;50.81;100402.16;4399380;32;33151;-89
2022/04/13 02:43:59;;;;;;;;;;;;;;;7.40;50.96;100401.06;4385838;32;33967;-89
2022/04/13 02:46:26;;;;;;;;;;;;;;;7.53;50.83;100400.06;4398823;32;34342;-86
2022/04/13 02:49:31;;;;;;;;;;;;;;;7.48;51.12;100404.00;4382446;32;33492;-89
2022/04/13 02:51:59;;;;;;;;;;;;;;;7.53;50.85;100407.16;4369901;32;34355;-87
2022/04/13 02:54:29;;;;;;;;;;;;;;;7.51;51.00;100403.78;4369497;32;34832;-87
2022/04/13 02:56:58;;;;;;;;;;;;;;;7.51;51.09;100407.28;4370307;32;33441;-92
2022/04/13 02:59:46;;;;;;;;;;;;;;;7.43;51.42;100414.06;4372167;32;33877;-92
2022/04/13 03:02:16;;;;;;;;;;;;;;;7.44;51.56;100406.00;4369408;32;32712;-88
2022/04/13 03:05:05;;;;;;;;;;;;;;;7.41;51.41;100410.69;4369446;32;34870;-86
2022/04/13 03:07:54;;;;;;;;;;;;;;;7.16;51.81;100411.56;4383827;32;33840;-91
2022/04/13 03:10:24;;;;;;;;;;;;;;;7.27;51.59;100409.00;4374057;32;32230;-92
2022/04/13 03:13:12;;;;;;;;;;;;;;;7.30;51.52;100414.13;4399043;32;33740;-89
2022/04/13 03:16:20;;;;;;;;;;;;;;;7.27;50.97;100409.00;4399460;32;35297;-91
2022/04/13 03:18:51;;;;;;;;;;;;;;;7.10;50.56;100417.28;4385514;32;33603;-86
2022/04/13 03:21:19;;;;;;;;;;;;;;;7.14;50.68;100415.28;4385817;32;32149;-92
2022/04/13 03:24:08;;;;;;;;;;;;;;;6.89;51.40;100421.44;4398195;32;32794;-87
2022/04/13 03:26:41;;;;;;;;;;;;;;;7.06;50.80;100418.47;4398023;32;35277;-87
2022/04/13 03:29:09;;;;;;;;;;;;;;;7.09;51.23;100418.25;4385252;32;32760;-88
2022/04/13 03:32:05;;;;;;;;;;;;;;;7.11;51.46;100426.94;4398114;32;32243;-89
2022/04/13 03:34:33;;;;;;;;;;;;;;;6.96;51.80;100430.66;4397994;32;33296;-87
2022/04/13 03:37:23;;;;;;;;;;;;;;;7.00;51.64;100428.62;4388445;32;34804;-88
2022/04/13 03:39:53;;;;;;;;;;;;;;;7.06;51.58;100431.69;4399295;32;34498;-86
2022/04/13 03:42:22;;;;;;;;;;;;;;;6.90;52.03;100430.22;4387970;32;34075;-90
2022/04/13 03:45:11;;;;;;;;;;;;;;;7.10;51.89;100430.53;4389616;32;34167;-89
2022/04/13 03:47:41;;;;;;;;;;;;;;;7.08;52.02;100437.72;4401443;32;35355;-87
2022/04/13 03:50:09;;;;;;;;;;;;;;;7.09;52.10;100435.94;4398826;32;33938;-86
2022/04/13 03:52:58;;;;;;;;;;;;;;;6.88;52.82;100440.91;4399527;32;33436;-88
2022/04/13 03:56:01;;;;;;;;;;;;;;;6.92;52.85;100439.72;4367312;32;34054;-88
2022/04/13 03:58:32;;;;;;;;;;;;;;;6.87;52.96;100451.59;4354628;32;35448;-87
2022/04/13 04:01:00;;;;;;;;;;;;;;;6.91;52.89;100450.44;4354431;32;33620;-88
2022/04/13 04:03:30;;;;;;;;;;;;;;;6.97;52.85;100450.84;4366912;32;33648;-91
2022/04/13 04:05:58;;;;;;;;;;;;;;;6.99;52.70;100448.94;4354611;32;34082;-86
2022/04/13 04:08:28;;;;;;;;;;;;;;;6.94;52.78;100451.06;4353829;32;33871;-86
2022/04/13 04:11:27;;;;;;;;;;;;;;;6.99;52.30;100454.22;4357365;32;33926;-87
2022/04/13 04:13:56;;;;;;;;;;;;;;;6.73;52.85;100459.62;4369751;32;32877;-90
2022/04/13 04:16:25;;;;;;;;;;;;;;;6.90;52.17;100452.22;4402433;32;33414;-88
2022/04/13 04:18:55;;;;;;;;;;;;;;;6.89;52.14;100453.19;4375183;32;34632;-88
2022/04/13 04:21:43;;;;;;;;;;;;;;;6.99;51.72;100464.81;4386751;32;33058;-86
2022/04/13 04:24:31;;;;;;;;;;;;;;;6.94;51.84;100456.38;4399426;32;33646;-88
2022/04/13 04:27:00;;;;;;;;;;;;;;;7.03;51.52;100460.16;4378499;32;34964;-81
2022/04/13 04:29:28;;;;;;;;;;;;;;;6.78;52.16;100461.00;4376915;32;35660;-83
2022/04/13 04:31:59;;;;;;;;;;;;;;;7.01;51.92;100470.00;4373777;32;35466;-88
2022/04/13 04:34:35;;;;;;;;;;;;;;;6.90;52.94;100472.56;4388346;32;33501;-88
2022/04/13 04:37:04;;;;;;;;;;;;;;;7.03;52.78;100478.69;4375203;32;32699;-85
2022/04/13 04:39:33;;;;;;;;;;;;;;;7.14;52.75;100478.78;4375967;32;34604;-88
2022/04/13 04:42:05;;;;;;;;;;;;;;;7.10;52.77;100480.78;4376545;32;34511;-85
2022/04/13 04:44:33;;;;;;;;;;;;;;;7.14;52.72;100476.12;4364840;32;32516;-86
2022/04/13 04:47:05;;;;;;;;;;;;;;;7.06;53.16;100474.03;4376890;32;32911;-86
2022/04/13 04:49:53;;;;;;;;;;;;;;;7.21;52.87;100477.41;4364028;32;35411;-89
2022/04/13 04:52:30;;;;;;;;;;;;;;;7.13;52.89;100475.31;4386258;32;33573;-89
2022/04/13 04:55:14;;;;;;;;;;;;;;;7.27;51.90;100475.16;4387595;32;32960;-90
2022/04/13 04:58:10;;;;;;;;;;;;;;;7.24;52.09;100483.34;4367485;32;33730;-86
2022/04/13 05:00:39;;;;;;;;;;;;;;;7.32;51.29;100481.00;4376587;32;35585;-92
2022/04/13 05:03:48;;;;;;;;;;;;;;;7.44;51.00;100480.13;4377041;32;33765;-86
2022/04/13 05:06:36;;;;;;;;;;;;;;;7.46;50.31;100485.34;4388870;32;33109;-89
2022/04/13 05:09:04;;;;;;;;;;;;;;;7.67;49.98;100481.16;4366867;32;33240;-91
2022/04/13 05:11:32;;;;;;;;;;;;;;;7.69;50.08;100484.53;4375433;32;34540;-91
2022/04/13 05:14:04;;;;;;;;;;;;;;;7.77;50.22;100491.00;4388945;32;33625;-90
2022/04/13 05:16:34;;;;;;;;;;;;;;;7.85;50.33;100485.13;4376492;32;33615;-87
2022/04/13 05:19:02;;;;;;;;;;;;;;;7.93;50.18;100482.78;4377218;32;33891;-87
2022/04/13 05:21:50;;;;;;;;;;;;;;;7.99;49.95;100491.13;4385661;32;34364;-88
2022/04/13 05:24:18;;;;;;;;;;;;;;;8.15;49.96;100490.84;4390999;32;35339;-88
2022/04/13 05:26:46;;;;;;;;;;;;;;;8.21;49.85;100496.56;4388076;32;33673;-86
2022/04/13 05:29:18;;;;;;;;;;;;;;;8.27;49.89;100493.50;4399703;32;34131;-87
2022/04/13 05:31:46;;;;;;;;;;;;;;;8.44;49.81;100504.53;4400023;32;34967;-86
2022/04/13 05:34:14;;;;;;;;;;;;;;;8.51;50.00;100502.28;4385913;32;34266;-91
2022/04/13 05:37:02;;;;;;;;;;;;;;;8.52;50.18;100507.47;4400480;32;34006;-87
2022/04/13 05:39:51;;;;;;;;;;;;;;;8.72;50.03;100504.16;4400239;32;33890;-87
2022/04/13 05:42:24;;;;;;;;;;;;;;;8.79;49.62;100513.34;4398697;32;35615;-86
2022/04/13 05:45:14;;;;;;;;;;;;;;;8.87;49.14;100510.97;4398651;32;33273;-86
2022/04/13 05:48:05;;;;;;;;;;;;;;;8.72;50.57;100516.59;4399036;32;34009;-88
2022/04/13 05:50:33;;;;;;;;;;;;;;;9.09;49.80;100515.50;4398996;32;34293;-88
2022/04/13 05:53:22;;;;;;;;;;;;;;;9.17;47.91;100510.44;4389231;32;34115;-90
2022/04/13 05:55:56;;;;;;;;;;;;;;;9.53;47.15;100515.56;4401162;32;33686;-88
2022/04/13 05:58:43;;;;;;;;;;;;;;;9.65;45.72;100517.22;4402275;32;32726;-86
2022/04/13 06:01:31;;;;;;;;;;;;;;;9.70;45.48;100513.25;4377530;32;32479;-89
2022/04/13 06:04:01;;;;;;;;;;;;;;;9.62;45.65;100525.47;4400843;32;36012;-86
2022/04/13 06:06:49;;;;;;;;;;;;;;;10.06;44.53;100520.12;4400704;32;34766;-86
2022/04/13 06:09:19;;;;;;;;;;;;;;;10.05;44.98;100521.09;4400580;32;33583;-85
2022/04/13 06:12:07;;;;;;;;;;;;;;;10.03;45.25;100520.38;4388257;32;34928;-85
2022/04/13 06:14:35;;;;;;;;;;;;;;;10.10;44.05;100530.38;4400202;32;36028;-86
2022/04/13 06:17:23;;;;;;;;;;;;;;;10.74;43.33;100529.47;4375599;32;34082;-88
2022/04/13 06:19:52;;;;;;;;;;;;;;;10.44;43.78;100534.66;4398445;32;33248;-84
2022/04/13 06:22:21;;;;;;;;;;;;;;;10.57;42.59;100534.50;4385561;32;32662;-85
2022/04/13 06:25:10;;;;;;;;;;;;;;;10.88;42.90;100537.16;4386967;32;35585;-92
2022/04/13 06:27:57;;;;;;;;;;;;;;;11.27;41.62;100539.94;4387523;32;34453;-89
2022/04/13 06:30:32;;;;;;;;;;;;;;;11.56;41.89;100534.78;4397101;32;33930;-85
2022/04/13 06:33:04;;;;;;;;;;;;;;;11.79;40.16;100533.66;4397546;32;33202;-84
2022/04/13 06:35:35;;;;;;;;;;;;;;;11.70;39.69;100535.31;4385095;32;34458;-85
2022/04/13 06:38:03;;;;;;;;;;;;;;;11.74;39.91;100543.88;4396596;32;34810;-87
2022/04/13 06:40:51;;;;;;;;;;;;;;;12.09;38.36;100541.66;4397771;32;33734;-89
2022/04/13 06:43:18;;;;;;;;;;;;;;;11.73;39.10;100545.69;4397951;32;33155;-86
2022/04/13 06:45:48;;;;;;;;;;;;;;;12.13;38.53;100541.25;4397438;32;34769;-88
2022/04/13 06:48:16;;;;;;;;;;;;;;;12.06;38.04;100541.91;4397433;32;35413;-91
2022/04/13 06:50:57;;;;;;;;;;;;;;;12.40;36.49;100545.94;4373709;32;32874;-90
2022/04/13 06:53:26;;;;;;;;;;;;;;;12.25;37.71;100549.94;4397286;32;33480;-88
2022/04/13 06:55:54;;;;;;;;;;;;;;;12.35;37.00;100543.66;4384855;32;34412;-91
2022/04/13 06:58:25;;;;;;;;;;;;;;;12.20;37.60;100547.69;4385099;32;34637;-85
2022/04/13 07:01:26;;;;;;;;;;;;;;;12.37;36.57;100546.22;4384545;32;32643;-85
2022/04/13 07:03:53;;;;;;;;;;;;;;;12.24;37.17;100549.13;4372190;32;34190;-87
2022/04/13 07:06:38;;;;;;;;;;;;;;;12.32;37.12;100549.28;4397674;32;35032;-82
2022/04/13 07:09:26;;;;;;;;;;;;;;;12.43;36.96;100550.97;4397642;32;33165;-84
2022/04/13 07:11:58;;;;;;;;;;;;;;;12.58;36.32;100550.44;4385757;32;33215;-91
2022/04/13 07:14:25;;;;;;;;;;;;;;;12.68;36.97;100550.47;4385339;32;34498;-83
2022/04/13 07:16:53;;;;;;;;;;;;;;;12.84;36.40;100548.91;4397493;32;35436;-86
2022/04/13 07:19:21;;;;;;;;;;;;;;;12.83;35.99;100552.56;4397248;32;34738;-85
2022/04/13 07:21:50;;;;;;;;;;;;;;;12.92;35.89;100549.06;4397135;32;32803;-86
2022/04/13 07:24:38;;;;;;;;;;;;;;;13.38;35.31;100551.00;4387770;32;34254;-87
2022/04/13 07:27:26;;;;;;;;;;;;;;;13.23;34.60;100547.94;4397855;32;34983;-85
2022/04/13 07:29:55;;;;;;;;;;;;;;;13.10;34.65;100554.56;4398692;32;34707;-84
2022/04/13 07:32:24;;;;;;;;;;;;;;;13.34;34.67;100560.31;4384595;32;34116;-85
2022/04/13 07:34:52;;;;;;;;;;;;;;;13.29;35.60;100555.37;4398688;32;34188;-85
2022/04/13 07:37:43;;;;;;;;;;;;;;;13.44;33.90;100553.97;4384301;32;35909;-83
2022/04/13 07:40:11;;;;;;;;;;;;;;;13.79;33.51;100559.47;4397322;32;34728;-83
2022/04/13 07:42:40;;;;;;;;;;;;;;;13.83;33.52;100558.19;4384951;32;34544;-85
2022/04/13 07:45:24;;;;;;;;;;;;;;;13.74;33.17;100560.91;4384517;32;33523;-89
2022/04/13 07:48:03;;;;;;;;;;;;;;;14.05;32.99;100557.00;4386041;32;35298;-87
2022/04/13 07:50:31;;;;;;;;;;;;;;;13.94;32.72;100555.34;4399087;32;34217;-85
2022/04/13 07:53:00;;;;;;;;;;;;;;;14.01;32.67;100561.78;4387104;32;33960;-85
2022/04/13 07:55:29;;;;;;;;;;;;;;;14.29;32.11;100557.31;4399144;32;33444;-85
2022/04/13 07:57:58;;;;;;;;;;;;;;;14.38;31.28;100557.28;4396942;32;36227;-87
2022/04/13 08:00:27;;;;;;;;;;;;;;;14.50;32.05;100559.59;4386194;32;34980;-88
2022/04/13 08:02:55;;;;;;;;;;;;;;;14.39;32.39;100567.81;4372052;32;32284;-83
2022/04/13 08:05:28;;;;;;;;;;;;;;;14.77;32.59;100564.03;4397569;32;33826;-89
2022/04/13 08:08:00;;;;;;;;;;;;;;;14.84;32.64;100568.63;4383182;32;34610;-86
2022/04/13 08:10:31;;;;;;;;;;;;;;;15.17;30.70;100561.72;4398405;32;33586;-86
2022/04/13 08:13:07;;;;;;;;;;;;;;;15.14;29.88;100560.19;4397427;32;33766;-86
2022/04/13 08:15:34;;;;;;;;;;;;;;;15.00;30.35;100567.94;4386228;32;32979;-84
2022/04/13 08:18:03;;;;;;;;;;;;;;;15.42;29.39;100571.69;4385613;32;36038;-85
2022/04/13 08:20:33;;;;;;;;;;;;;;;15.34;29.82;100564.44;4398574;32;34200;-86
2022/04/13 08:23:04;;;;;;;;;;;;;;;15.22;29.17;100560.25;4398308;32;33040;-85
2022/04/13 08:25:34;;;;;;;;;;;;;;;15.50;29.63;100563.72;4397170;32;34821;-84
2022/04/13 08:28:02;;;;;;;;;;;;;;;15.18;29.18;100566.09;4385098;32;34904;-86
2022/04/13 08:30:30;;;;;;;;;;;;;;;15.25;29.20;100564.47;4400514;32;35308;-85
2022/04/13 08:32:58;;;;;;;;;;;;;;;15.04;29.23;100572.00;4397247;32;34327;-84
2022/04/13 08:35:28;;;;;;;;;;;;;;;14.97;28.34;100561.06;4385513;32;33906;-87
2022/04/13 08:38:01;;;;;;;;;;;;;;;14.81;28.37;100570.78;4385390;32;34044;-84
2022/04/13 08:40:31;;;;;;;;;;;;;;;15.40;29.43;100568.34;4400194;32;34621;-84
2022/04/13 08:43:22;;;;;;;;;;;;;;;15.64;28.32;100566.66;4398767;32;34321;-88
2022/04/13 08:45:55;;;;;;;;;;;;;;;15.56;28.33;100574.66;4397623;32;33434;-89
2022/04/13 08:48:24;;;;;;;;;;;;;;;15.82;27.33;100562.06;4386504;32;37172;-88
2022/04/13 08:51:02;;;;;;;;;;;;;;;15.99;27.58;100563.00;4398740;32;36317;-89
2022/04/13 08:53:36;;;;;;;;;;;;;;;15.89;28.04;100567.66;4398426;32;33582;-82
2022/04/13 08:56:08;;;;;;;;;;;;;;;15.48;27.44;100563.03;4398298;32;32853;-82
2022/04/13 08:58:57;;;;;;;;;;;;;;;15.58;28.28;100563.78;4386015;32;34635;-83
2022/04/13 09:01:27;;;;;;;;;;;;;;;15.39;27.58;100572.84;4399544;32;34734;-83
2022/04/13 09:04:10;;;;;;;;;;;;;;;15.24;28.43;100574.38;4385757;32;32342;-88
2022/04/13 09:06:39;;;;;;;;;;;;;;;15.33;28.55;100572.63;4397727;32;32493;-84
2022/04/13 09:09:14;;;;;;;;;;;;;;;15.48;28.22;100563.84;4397485;32;36167;-85
2022/04/13 09:12:05;;;;;;;;;;;;;;;15.81;29.00;100555.03;4398069;32;34444;-83
2022/04/13 09:14:37;;;;;;;;;;;;;;;15.94;28.66;100563.47;4396967;32;33361;-85
2022/04/13 09:17:04;;;;;;;;;;;;;;;15.98;28.01;100567.50;4385684;32;34058;-88
2022/04/13 09:19:32;;;;;;;;;;;;;;;15.95;27.71;100559.78;4399371;32;35043;-85
2022/04/13 09:22:05;;;;;;;;;;;;;;;16.08;28.05;100559.34;4398078;32;34418;-90
2022/04/13 09:24:36;;;;;;;;;;;;;;;16.00;28.07;100562.00;4398427;32;33271;-85
2022/04/13 09:27:06;;;;;;;;;;;;;;;16.16;26.33;100556.72;4396944;32;32777;-84
2022/04/13 09:29:34;;;;;;;;;;;;;;;16.37;26.10;100551.78;4387573;32;34929;-83
2022/04/13 09:32:02;;;;;;;;;;;;;;;16.48;26.51;100551.47;4398414;32;34612;-89
2022/04/13 09:34:36;;;;;;;;;;;;;;;16.67;27.00;100549.34;4397261;32;33113;-86
2022/04/13 09:37:06;;;;;;;;;;;;;;;16.67;27.96;100549.34;4398102;32;33108;-84
2022/04/13 09:39:40;;;;;;;;;;;;;;;16.38;27.78;100542.72;4387687;32;34911;-84
2022/04/13 09:42:14;;;;;;;;;;;;;;;16.42;26.75;100542.22;4399129;32;33495;-89
2022/04/13 09:44:44;;;;;;;;;;;;;;;16.45;27.23;100546.44;4401444;32;33998;-86
2022/04/13 09:47:15;;;;;;;;;;;;;;;16.33;28.59;100551.22;4387565;32;32713;-91
2022/04/13 09:49:45;;;;;;;;;;;;;;;16.84;26.94;100531.41;4399874;32;35062;-89
2022/04/13 09:52:27;;;;;;;;;;;;;;;17.11;27.68;100531.09;4388744;32;34731;-91
2022/04/13 09:55:04;;;;;;;;;;;;;;;17.23;26.95;100533.28;4386665;32;33294;-86
2022/04/13 09:57:32;;;;;;;;;;;;;;;17.48;25.74;100532.28;4385685;32;32651;-87
2022/04/13 10:00:01;;;;;;;;;;;;;;;17.05;28.03;100534.44;4399706;32;34357;-88
2022/04/13 10:02:41;;;;;;;;;;;;;;;17.50;26.90;100532.94;4403135;32;34539;-82
2022/04/13 10:05:15;;;;;;;;;;;;;;;17.50;26.70;100531.09;4386668;32;33496;-91
2022/04/13 10:08:08;;;;;;;;;;;;;;;17.31;26.22;100527.03;4385126;32;34229;-87
2022/04/13 10:10:58;;;;;;;;;;;;;;;17.28;28.41;100528.22;4397507;32;33937;-85
2022/04/13 10:13:40;;;;;;;;;;;;;;;17.74;28.15;100530.19;4397888;32;35205;-85
2022/04/13 10:16:34;;;;;;;;;;;;;;;17.85;26.15;100521.78;4399940;32;33613;-85
2022/04/13 10:19:22;;;;;;;;;;;;;;;17.85;26.41;100517.22;4387900;32;34654;-86
2022/04/13 10:21:54;;;;;;;;;;;;;;;17.52;28.61;100523.72;4384890;32;34570;-85
2022/04/13 10:24:26;;;;;;;;;;;;;;;17.82;26.58;100525.66;4385095;32;33950;-85
2022/04/13 10:27:06;;;;;;;;;;;;;;;17.95;25.57;100517.03;4396770;32;33407;-83
2022/04/13 10:29:58;;;;;;;;;;;;;;;17.84;26.90;100520.06;4401166;32;34232;-86
2022/04/13 10:32:30;;;;;;;;;;;;;;;18.04;25.92;100513.28;4397984;32;34603;-91
2022/04/13 10:35:04;;;;;;;;;;;;;;;18.20;24.81;100514.06;4398214;32;35011;-93
2022/04/13 10:37:32;;;;;;;;;;;;;;;17.66;26.61;100511.41;4398167;32;33093;-84
2022/04/13 10:40:01;;;;;;;;;;;;;;;18.08;25.96;100507.38;4397133;32;34940;-84
2022/04/13 10:42:31;;;;;;;;;;;;;;;17.68;25.72;100507.50;4383536;32;36296;-85
2022/04/13 10:45:04;;;;;;;;;;;;;;;18.28;26.42;100505.09;4396266;32;34687;-86
2022/04/13 10:47:44;;;;;;;;;;;;;;;18.67;25.98;100500.50;4396921;32;33277;-86
2022/04/13 10:50:27;;;;;;;;;;;;;;;18.91;24.69;100498.50;4398278;32;34880;-83
2022/04/13 10:52:59;;;;;;;;;;;;;;;19.18;25.64;100495.22;4395537;32;36270;-85
2022/04/13 10:55:30;;;;;;;;;;;;;;;19.26;25.76;100480.84;4397501;32;34685;-82
2022/04/13 10:58:01;;;;;;;;;;;;;;;19.41;23.02;100485.25;4398193;32;33636;-80
2022/04/13 11:00:31;;;;;;;;;;;;;;;19.45;25.06;100486.53;4383810;32;35255;-83
2022/04/13 11:03:06;;;;;;;;;;;;;;;19.92;22.62;100473.53;4396598;32;35049;-85
2022/04/13 11:05:35;;;;;;;;;;;;;;;19.44;23.55;100470.56;4384913;32;33716;-86
2022/04/13 11:08:23;;;;;;;;;;;;;;;18.96;24.04;100477.19;4385134;32;34238;-82
2022/04/13 11:10:55;;;;;;;;;;;;;;;19.50;25.29;100475.19;4399029;32;33792;-86
2022/04/13 11:13:30;;;;;;;;;;;;;;;19.42;22.98;100470.72;4397350;32;34893;-86
2022/04/13 11:16:13;;;;;;;;;;;;;;;19.88;22.50;100458.72;4384959;32;35430;-82
2022/04/13 11:18:42;;;;;;;;;;;;;;;20.20;24.53;100461.03;4384961;32;34741;-82
2022/04/13 11:21:10;;;;;;;;;;;;;;;20.26;22.95;100460.28;4397426;32;33708;-83
2022/04/13 11:23:46;;;;;;;;;;;;;;;20.30;22.43;100458.88;4396427;32;35144;-83
2022/04/13 11:26:26;;;;;;;;;;;;;;;20.72;22.41;100448.09;4378484;32;34405;-84
2022/04/13 11:29:18;;;;;;;;;;;;;;;20.89;21.87;100441.44;4382323;32;33099;-84
2022/04/13 11:32:00;;;;;;;;;;;;;;;21.60;21.11;100441.13;4381191;32;34252;-83
2022/04/13 11:34:29;;;;;;;;;;;;;;;22.31;20.34;100446.94;4369988;32;34144;-83
2022/04/13 11:36:58;;;;;;;;;;;;;;;23.63;20.39;100435.97;4368025;32;34423;-82
2022/04/13 11:39:51;;;;;;;;;;;;;;;23.71;18.67;100433.87;4377773;32;33002;-83
2022/04/13 11:42:19;;;;;;;;;;;;;;;23.05;18.60;100432.28;4373234;32;34940;-88
2022/04/13 11:44:50;;;;;;;;;;;;;;;22.71;19.90;100439.72;4347316;32;33942;-91
2022/04/13 11:47:18;;;;;;;;;;;;;;;22.99;19.42;100427.66;4384007;32;33451;-84
2022/04/13 11:50:13;;;;;;;;;;;;;;;23.77;19.39;100424.84;4385451;32;33529;-88
2022/04/13 11:52:46;;;;;;;;;;;;;;;23.65;19.21;100429.28;4357673;32;32807;-87
2022/04/13 11:55:16;;;;;;;;;;;;;;;23.34;19.32;100420.16;4375541;32;33987;-84
2022/04/13 11:57:57;;;;;;;;;;;;;;;23.20;19.61;100421.22;4370390;32;33954;-82
2022/04/13 12:00:52;;;;;;;;;;;;;;;22.55;19.77;100421.16;4357037;32;32789;-83
2022/04/13 12:03:40;;;;;;;;;;;;;;;22.62;19.53;100419.28;4377072;32;34757;-82
2022/04/13 12:06:12;;;;;;;;;;;;;;;22.34;19.85;100422.12;4355183;32;34308;-83
2022/04/13 12:09:02;;;;;;;;;;;;;;;23.25;21.38;100411.41;4374291;32;35718;-88
2022/04/13 12:11:40;;;;;;;;;;;;;;;24.27;20.07;100399.59;4387614;32;32296;-85
2022/04/13 12:14:10;;;;;;;;;;;;;;;24.54;18.71;100401.12;4356645;32;33379;-85
2022/04/13 12:16:41;;;;;;;;;;;;;;;25.01;19.02;100393.22;4389610;32;34637;-82
2022/04/13 12:19:20;;;;;;;;;;;;;;;24.81;17.17;100386.25;4372286;32;35192;-86
2022/04/13 12:21:48;;;;;;;;;;;;;;;25.65;17.52;100381.91;4372354;32;33523;-84
2022/04/13 12:24:15;;;;;;;;;;;;;;;25.36;17.33;100383.50;4382692;32;33817;-82
2022/04/13 12:26:46;;;;;;;;;;;;;;;25.02;19.99;100386.72;4382489;32;36294;-83
2022/04/13 12:29:22;;;;;;;;;;;;;;;25.25;18.33;100380.69;4369870;32;34798;-83
2022/04/13 12:31:51;;;;;;;;;;;;;;;25.14;18.79;100381.38;4369674;32;33170;-84
2022/04/13 12:34:21;;;;;;;;;;;;;;;25.59;17.86;100380.13;4368133;32;34180;-83
2022/04/13 12:37:09;;;;;;;;;;;;;;;25.69;18.17;100372.22;4358380;32;35395;-83
2022/04/13 12:39:40;;;;;;;;;;;;;;;25.59;18.11;100366.50;4386488;32;35432;-83
2022/04/13 12:42:17;;;;;;;;;;;;;;;25.71;19.73;100361.94;4375346;32;32653;-83
2022/04/13 12:44:47;;;;;;;;;;;;;;;25.79;18.46;100362.47;4372856;32;34166;-82
2022/04/13 12:47:16;;;;;;;;;;;;;;;25.54;17.72;100356.25;4372609;32;34002;-82
2022/04/13 12:49:46;;;;;;;;;;;;;;;24.61;18.36;100359.22;4370516;32;34315;-81
2022/04/13 12:52:18;;;;;;;;;;;;;;;23.85;18.04;100354.00;4384324;32;33085;-82
2022/04/13 12:54:46;;;;;;;;;;;;;;;23.67;17.83;100353.03;4373198;32;33901;-83
2022/04/13 12:57:15;;;;;;;;;;;;;;;22.67;20.12;100355.22;4385432;32;35964;-87
2022/04/13 12:59:44;;;;;;;;;;;;;;;23.06;21.42;100341.66;4371779;32;34754;-83
2022/04/13 13:02:17;;;;;;;;;;;;;;;23.29;20.60;100343.94;4373596;32;32232;-83
2022/04/13 13:04:51;;;;;;;;;;;;;;;23.65;19.69;100339.63;4386296;32;32836;-83
2022/04/13 13:07:24;;;;;;;;;;;;;;;23.67;19.00;100339.44;4360680;32;34912;-83
2022/04/13 13:10:01;;;;;;;;;;;;;;;23.84;19.35;100330.56;4389690;32;34896;-85
2022/04/13 13:12:31;;;;;;;;;;;;;;;23.48;19.09;100329.47;4344764;32;33340;-82
2022/04/13 13:15:08;;;;;;;;;;;;;;;22.69;19.75;100328.75;4369164;32;33832;-83
2022/04/13 13:17:42;;;;;;;;;;;;;;;22.91;21.57;100345.63;4358444;32;34172;-82
2022/04/13 13:20:14;;;;;;;;;;;;;;;22.92;20.65;100339.16;4383828;32;34897;-83
2022/04/13 13:22:46;;;;;;;;;;;;;;;23.29;22.01;100333.09;4383000;32;32774;-83
2022/04/13 13:25:15;;;;;;;;;;;;;;;23.77;19.50;100331.66;4377758;32;33314;-88